sensor_id;sensor_type;location;lat;lon;timestamp;temperature;humidity
43320;DHT22;28914;48.722;9.332;2023-02-01T00:04:41;8.30;76.00
43320;DHT22;28914;48.722;9.332;2023-02-01T00:10:00;8.30;76.10
43320;DHT22;28914;48.722;9.332;2023-02-01T00:15:19;8.30;76.60
43320;DHT22;28914;48.722;9.332;2023-02-01T00:20:44;8.20;76.70
43320;DHT22;28914;48.722;9.332;2023-02-01T00:26:05;8.20;76.70
43320;DHT22;28914;48.722;9.332;2023-02-01T00:31:25;8.20;76.90
43320;DHT22;28914;48.722;9.332;2023-02-01T00:36:45;8.20;77.20
43320;DHT22;28914;48.722;9.332;2023-02-01T00:42:04;8.10;77.00
43320;DHT22;28914;48.722;9.332;2023-02-01T00:47:23;8.20;77.10
43320;DHT22;28914;48.722;9.332;2023-02-01T00:52:42;8.10;77.30
43320;DHT22;28914;48.722;9.332;2023-02-01T00:58:02;8.10;77.20
43320;DHT22;28914;48.722;9.332;2023-02-01T01:03:22;8.10;77.20
43320;DHT22;28914;48.722;9.332;2023-02-01T01:08:41;8.10;77.30
43320;DHT22;28914;48.722;9.332;2023-02-01T01:14:01;8.10;77.60
43320;DHT22;28914;48.722;9.332;2023-02-01T01:19:20;8.10;77.30
43320;DHT22;28914;48.722;9.332;2023-02-01T01:24:40;8.20;77.30
43320;DHT22;28914;48.722;9.332;2023-02-01T01:29:59;8.20;77.50
43320;DHT22;28914;48.722;9.332;2023-02-01T01:35:18;8.20;77.30
43320;DHT22;28914;48.722;9.332;2023-02-01T01:40:37;8.20;77.30
43320;DHT22;28914;48.722;9.332;2023-02-01T01:45:56;8.20;77.30
43320;DHT22;28914;48.722;9.332;2023-02-01T01:51:18;8.20;77.20
43320;DHT22;28914;48.722;9.332;2023-02-01T01:56:40;8.20;77.40
43320;DHT22;28914;48.722;9.332;2023-02-01T02:01:59;8.20;77.40
43320;DHT22;28914;48.722;9.332;2023-02-01T02:07:27;8.20;77.30
43320;DHT22;28914;48.722;9.332;2023-02-01T02:12:47;8.20;77.60
43320;DHT22;28914;48.722;9.332;2023-02-01T02:18:17;8.20;77.30
43320;DHT22;28914;48.722;9.332;2023-02-01T02:24:24;8.20;77.50
43320;DHT22;28914;48.722;9.332;2023-02-01T02:35:56;8.30;77.30
43320;DHT22;28914;48.722;9.332;2023-02-01T02:47:27;8.30;77.20
43320;DHT22;28914;48.722;9.332;2023-02-01T02:52:57;8.30;77.10
43320;DHT22;28914;48.722;9.332;2023-02-01T02:58:36;8.40;77.30
43320;DHT22;28914;48.722;9.332;2023-02-01T03:04:15;8.30;77.30
43320;DHT22;28914;48.722;9.332;2023-02-01T03:09:37;8.40;77.40
43320;DHT22;28914;48.722;9.332;2023-02-01T03:15:00;8.40;77.50
43320;DHT22;28914;48.722;9.332;2023-02-01T03:20:23;8.40;78.20
43320;DHT22;28914;48.722;9.332;2023-02-01T03:25:43;8.40;78.20
43320;DHT22;28914;48.722;9.332;2023-02-01T03:31:03;8.40;78.30
43320;DHT22;28914;48.722;9.332;2023-02-01T03:36:37;8.40;78.60
43320;DHT22;28914;48.722;9.332;2023-02-01T03:42:04;8.30;78.50
43320;DHT22;28914;48.722;9.332;2023-02-01T03:47:30;8.30;78.60
43320;DHT22;28914;48.722;9.332;2023-02-01T03:52:59;8.30;78.70
43320;DHT22;28914;48.722;9.332;2023-02-01T03:58:22;8.30;78.80
43320;DHT22;28914;48.722;9.332;2023-02-01T04:03:41;8.30;79.00
43320;DHT22;28914;48.722;9.332;2023-02-01T04:09:00;8.20;79.10
43320;DHT22;28914;48.722;9.332;2023-02-01T04:14:20;8.20;79.30
43320;DHT22;28914;48.722;9.332;2023-02-01T04:19:39;8.20;79.20
43320;DHT22;28914;48.722;9.332;2023-02-01T04:24:58;8.20;79.20
43320;DHT22;28914;48.722;9.332;2023-02-01T04:30:17;8.30;79.20
43320;DHT22;28914;48.722;9.332;2023-02-01T04:35:36;8.30;79.20
43320;DHT22;28914;48.722;9.332;2023-02-01T04:40:56;8.30;79.10
43320;DHT22;28914;48.722;9.332;2023-02-01T04:46:15;8.40;79.10
43320;DHT22;28914;48.722;9.332;2023-02-01T04:51:34;8.40;79.10
43320;DHT22;28914;48.722;9.332;2023-02-01T04:56:53;8.40;79.00
43320;DHT22;28914;48.722;9.332;2023-02-01T05:02:12;8.40;78.80
43320;DHT22;28914;48.722;9.332;2023-02-01T05:07:32;8.40;78.80
43320;DHT22;28914;48.722;9.332;2023-02-01T05:12:51;8.40;78.80
43320;DHT22;28914;48.722;9.332;2023-02-01T05:18:29;8.40;78.80
43320;DHT22;28914;48.722;9.332;2023-02-01T05:23:48;8.40;78.70
43320;DHT22;28914;48.722;9.332;2023-02-01T05:29:26;8.40;78.60
43320;DHT22;28914;48.722;9.332;2023-02-01T05:34:45;8.50;78.60
43320;DHT22;28914;48.722;9.332;2023-02-01T05:40:05;8.50;78.60
43320;DHT22;28914;48.722;9.332;2023-02-01T05:45:25;8.50;79.30
43320;DHT22;28914;48.722;9.332;2023-02-01T05:50:44;8.50;78.40
43320;DHT22;28914;48.722;9.332;2023-02-01T05:56:03;8.50;78.30
43320;DHT22;28914;48.722;9.332;2023-02-01T06:01:22;8.60;78.30
43320;DHT22;28914;48.722;9.332;2023-02-01T06:06:41;8.60;78.20
43320;DHT22;28914;48.722;9.332;2023-02-01T06:12:01;8.60;78.30
43320;DHT22;28914;48.722;9.332;2023-02-01T06:17:21;8.70;78.40
43320;DHT22;28914;48.722;9.332;2023-02-01T06:22:40;8.60;78.50
43320;DHT22;28914;48.722;9.332;2023-02-01T06:28:02;8.60;78.70
43320;DHT22;28914;48.722;9.332;2023-02-01T06:33:25;8.50;78.80
43320;DHT22;28914;48.722;9.332;2023-02-01T06:38:44;8.50;78.90
43320;DHT22;28914;48.722;9.332;2023-02-01T06:44:03;8.40;79.20
43320;DHT22;28914;48.722;9.332;2023-02-01T06:49:22;8.30;79.10
43320;DHT22;28914;48.722;9.332;2023-02-01T06:54:41;8.30;79.10
43320;DHT22;28914;48.722;9.332;2023-02-01T07:00:03;8.30;79.80
43320;DHT22;28914;48.722;9.332;2023-02-01T07:05:23;8.40;79.20
43320;DHT22;28914;48.722;9.332;2023-02-01T07:10:42;8.40;79.20
43320;DHT22;28914;48.722;9.332;2023-02-01T07:16:02;8.40;79.20
43320;DHT22;28914;48.722;9.332;2023-02-01T07:21:21;8.50;79.30
43320;DHT22;28914;48.722;9.332;2023-02-01T07:26:41;8.50;79.30
43320;DHT22;28914;48.722;9.332;2023-02-01T07:32:00;8.60;79.30
43320;DHT22;28914;48.722;9.332;2023-02-01T07:37:21;8.60;79.10
43320;DHT22;28914;48.722;9.332;2023-02-01T07:42:40;8.60;79.00
43320;DHT22;28914;48.722;9.332;2023-02-01T07:47:59;8.70;79.00
43320;DHT22;28914;48.722;9.332;2023-02-01T07:53:18;8.70;78.80
43320;DHT22;28914;48.722;9.332;2023-02-01T07:58:38;8.80;78.80
43320;DHT22;28914;48.722;9.332;2023-02-01T08:03:59;8.80;78.70
43320;DHT22;28914;48.722;9.332;2023-02-01T08:09:18;8.80;78.70
43320;DHT22;28914;48.722;9.332;2023-02-01T08:14:37;8.80;78.70
43320;DHT22;28914;48.722;9.332;2023-02-01T08:19:56;8.90;78.70
43320;DHT22;28914;48.722;9.332;2023-02-01T08:25:16;8.90;78.70
43320;DHT22;28914;48.722;9.332;2023-02-01T08:30:39;8.90;78.50
43320;DHT22;28914;48.722;9.332;2023-02-01T08:36:01;8.90;78.20
43320;DHT22;28914;48.722;9.332;2023-02-01T08:41:25;9.00;78.40
43320;DHT22;28914;48.722;9.332;2023-02-01T08:46:44;9.00;78.30
43320;DHT22;28914;48.722;9.332;2023-02-01T08:52:04;9.10;78.00
43320;DHT22;28914;48.722;9.332;2023-02-01T08:57:23;9.20;78.00
43320;DHT22;28914;48.722;9.332;2023-02-01T09:02:43;9.30;77.80
43320;DHT22;28914;48.722;9.332;2023-02-01T09:08:02;9.40;77.80
43320;DHT22;28914;48.722;9.332;2023-02-01T09:13:21;9.50;77.50
43320;DHT22;28914;48.722;9.332;2023-02-01T09:18:41;9.60;77.30
43320;DHT22;28914;48.722;9.332;2023-02-01T09:24:00;9.60;76.80
43320;DHT22;28914;48.722;9.332;2023-02-01T09:29:19;9.60;76.60
43320;DHT22;28914;48.722;9.332;2023-02-01T09:34:38;9.70;76.30
43320;DHT22;28914;48.722;9.332;2023-02-01T09:39:57;9.60;76.00
43320;DHT22;28914;48.722;9.332;2023-02-01T09:45:46;9.60;76.10
43320;DHT22;28914;48.722;9.332;2023-02-01T09:51:16;9.60;76.10
43320;DHT22;28914;48.722;9.332;2023-02-01T09:56:44;9.60;76.40
43320;DHT22;28914;48.722;9.332;2023-02-01T10:02:12;9.70;76.40
43320;DHT22;28914;48.722;9.332;2023-02-01T10:08:00;9.80;75.90
43320;DHT22;28914;48.722;9.332;2023-02-01T10:13:28;10.00;76.30
43320;DHT22;28914;48.722;9.332;2023-02-01T10:18:57;10.20;76.50
43320;DHT22;28914;48.722;9.332;2023-02-01T10:24:36;10.40;75.60
43320;DHT22;28914;48.722;9.332;2023-02-01T10:30:00;10.50;74.90
43320;DHT22;28914;48.722;9.332;2023-02-01T10:35:28;10.60;74.90
43320;DHT22;28914;48.722;9.332;2023-02-01T10:40:49;10.60;74.70
43320;DHT22;28914;48.722;9.332;2023-02-01T10:46:08;10.70;74.60
43320;DHT22;28914;48.722;9.332;2023-02-01T10:51:38;10.70;74.50
43320;DHT22;28914;48.722;9.332;2023-02-01T10:57:01;10.90;74.70
43320;DHT22;28914;48.722;9.332;2023-02-01T11:02:30;11.00;74.20
43320;DHT22;28914;48.722;9.332;2023-02-01T11:07:53;11.10;73.40
43320;DHT22;28914;48.722;9.332;2023-02-01T11:13:18;11.10;72.80
43320;DHT22;28914;48.722;9.332;2023-02-01T11:18:38;11.10;73.00
43320;DHT22;28914;48.722;9.332;2023-02-01T11:24:02;11.10;73.00
43320;DHT22;28914;48.722;9.332;2023-02-01T11:29:23;11.20;72.50
43320;DHT22;28914;48.722;9.332;2023-02-01T11:34:55;11.20;72.00
43320;DHT22;28914;48.722;9.332;2023-02-01T11:45:35;11.20;71.50
43320;DHT22;28914;48.722;9.332;2023-02-01T11:50:59;11.20;72.30
43320;DHT22;28914;48.722;9.332;2023-02-01T11:56:32;11.10;71.70
43320;DHT22;28914;48.722;9.332;2023-02-01T12:07:23;11.20;71.90
43320;DHT22;28914;48.722;9.332;2023-02-01T12:18:55;11.30;69.60
43320;DHT22;28914;48.722;9.332;2023-02-01T12:52:50;11.00;67.40
43320;DHT22;28914;48.722;9.332;2023-02-01T12:58:43;10.90;67.50
43320;DHT22;28914;48.722;9.332;2023-02-01T13:04:16;10.80;67.40
43320;DHT22;28914;48.722;9.332;2023-02-01T13:09:46;10.80;67.20
43320;DHT22;28914;48.722;9.332;2023-02-01T13:15:26;10.70;66.60
43320;DHT22;28914;48.722;9.332;2023-02-01T13:20:55;10.60;67.00
43320;DHT22;28914;48.722;9.332;2023-02-01T13:26:16;10.50;67.30
43320;DHT22;28914;48.722;9.332;2023-02-01T13:31:57;10.50;67.40
43320;DHT22;28914;48.722;9.332;2023-02-01T13:37:51;10.50;67.70
43320;DHT22;28914;48.722;9.332;2023-02-01T13:43:20;10.50;68.10
43320;DHT22;28914;48.722;9.332;2023-02-01T13:48:56;10.50;68.60
43320;DHT22;28914;48.722;9.332;2023-02-01T13:54:26;10.50;68.30
43320;DHT22;28914;48.722;9.332;2023-02-01T14:05:55;10.50;68.30
43320;DHT22;28914;48.722;9.332;2023-02-01T14:10:58;10.60;68.40
43320;DHT22;28914;48.722;9.332;2023-02-01T14:16:17;10.50;68.10
43320;DHT22;28914;48.722;9.332;2023-02-01T14:21:48;10.50;68.30
43320;DHT22;28914;48.722;9.332;2023-02-01T14:32:36;10.40;68.70
43320;DHT22;28914;48.722;9.332;2023-02-01T14:38:01;10.40;68.80
43320;DHT22;28914;48.722;9.332;2023-02-01T14:43:49;10.50;68.60
43320;DHT22;28914;48.722;9.332;2023-02-01T14:49:09;10.40;68.10
43320;DHT22;28914;48.722;9.332;2023-02-01T14:54:29;10.40;68.60
43320;DHT22;28914;48.722;9.332;2023-02-01T14:59:49;10.40;68.60
43320;DHT22;28914;48.722;9.332;2023-02-01T15:05:32;10.30;68.40
43320;DHT22;28914;48.722;9.332;2023-02-01T15:10:53;10.20;68.60
43320;DHT22;28914;48.722;9.332;2023-02-01T15:16:15;10.20;68.80
43320;DHT22;28914;48.722;9.332;2023-02-01T15:21:43;10.10;68.90
43320;DHT22;28914;48.722;9.332;2023-02-01T15:27:05;10.10;69.10
43320;DHT22;28914;48.722;9.332;2023-02-01T15:32:34;10.10;69.10
43320;DHT22;28914;48.722;9.332;2023-02-01T15:49:29;10.00;69.00
43320;DHT22;28914;48.722;9.332;2023-02-01T15:54:52;10.00;68.60
43320;DHT22;28914;48.722;9.332;2023-02-01T16:00:25;10.00;68.60
43320;DHT22;28914;48.722;9.332;2023-02-01T16:06:01;10.00;68.50
43320;DHT22;28914;48.722;9.332;2023-02-01T16:16:46;10.00;68.70
43320;DHT22;28914;48.722;9.332;2023-02-01T16:22:06;10.00;68.50
43320;DHT22;28914;48.722;9.332;2023-02-01T16:27:25;10.10;68.90
43320;DHT22;28914;48.722;9.332;2023-02-01T16:32:44;10.00;69.00
43320;DHT22;28914;48.722;9.332;2023-02-01T16:38:04;10.00;68.90
43320;DHT22;28914;48.722;9.332;2023-02-01T16:43:27;9.90;69.20
43320;DHT22;28914;48.722;9.332;2023-02-01T16:48:51;9.90;69.20
43320;DHT22;28914;48.722;9.332;2023-02-01T16:54:11;9.90;69.40
43320;DHT22;28914;48.722;9.332;2023-02-01T16:59:31;9.90;69.20
43320;DHT22;28914;48.722;9.332;2023-02-01T17:04:50;9.90;69.50
43320;DHT22;28914;48.722;9.332;2023-02-01T17:10:21;9.80;70.20
43320;DHT22;28914;48.722;9.332;2023-02-01T17:15:47;9.80;69.30
43320;DHT22;28914;48.722;9.332;2023-02-01T17:21:09;9.80;69.10
43320;DHT22;28914;48.722;9.332;2023-02-01T17:26:29;9.70;69.30
43320;DHT22;28914;48.722;9.332;2023-02-01T17:31:51;9.70;69.40
43320;DHT22;28914;48.722;9.332;2023-02-01T17:37:29;9.70;69.40
43320;DHT22;28914;48.722;9.332;2023-02-01T17:42:48;9.70;69.40
43320;DHT22;28914;48.722;9.332;2023-02-01T17:48:08;9.60;69.50
43320;DHT22;28914;48.722;9.332;2023-02-01T17:53:28;9.60;69.60
43320;DHT22;28914;48.722;9.332;2023-02-01T17:58:48;9.70;69.60
43320;DHT22;28914;48.722;9.332;2023-02-01T18:04:17;9.70;69.60
43320;DHT22;28914;48.722;9.332;2023-02-01T18:09:36;9.60;69.20
43320;DHT22;28914;48.722;9.332;2023-02-01T18:14:56;9.60;69.40
43320;DHT22;28914;48.722;9.332;2023-02-01T18:20:19;9.60;69.40
43320;DHT22;28914;48.722;9.332;2023-02-01T18:25:39;9.60;69.40
43320;DHT22;28914;48.722;9.332;2023-02-01T18:30:58;9.50;69.50
43320;DHT22;28914;48.722;9.332;2023-02-01T18:36:18;9.50;69.60
43320;DHT22;28914;48.722;9.332;2023-02-01T18:41:38;9.50;69.90
43320;DHT22;28914;48.722;9.332;2023-02-01T18:46:58;9.50;69.90
43320;DHT22;28914;48.722;9.332;2023-02-01T18:52:18;9.50;69.90
43320;DHT22;28914;48.722;9.332;2023-02-01T18:57:38;9.50;69.90
43320;DHT22;28914;48.722;9.332;2023-02-01T19:02:58;9.50;69.90
43320;DHT22;28914;48.722;9.332;2023-02-01T19:08:17;9.50;69.50
43320;DHT22;28914;48.722;9.332;2023-02-01T19:13:37;9.50;69.80
43320;DHT22;28914;48.722;9.332;2023-02-01T19:18:56;9.50;69.70
43320;DHT22;28914;48.722;9.332;2023-02-01T19:24:16;9.50;69.90
43320;DHT22;28914;48.722;9.332;2023-02-01T19:29:35;9.50;69.90
43320;DHT22;28914;48.722;9.332;2023-02-01T19:34:58;9.50;69.90
43320;DHT22;28914;48.722;9.332;2023-02-01T19:40:18;9.50;69.60
43320;DHT22;28914;48.722;9.332;2023-02-01T19:45:38;9.50;69.40
43320;DHT22;28914;48.722;9.332;2023-02-01T19:50:57;9.50;69.50
43320;DHT22;28914;48.722;9.332;2023-02-01T19:56:17;9.40;69.40
43320;DHT22;28914;48.722;9.332;2023-02-01T20:01:36;9.40;69.30
43320;DHT22;28914;48.722;9.332;2023-02-01T20:06:57;9.30;69.40
43320;DHT22;28914;48.722;9.332;2023-02-01T20:12:16;9.30;69.60
43320;DHT22;28914;48.722;9.332;2023-02-01T20:17:37;9.30;69.70
43320;DHT22;28914;48.722;9.332;2023-02-01T20:22:56;9.30;69.80
43320;DHT22;28914;48.722;9.332;2023-02-01T20:28:16;9.30;69.80
43320;DHT22;28914;48.722;9.332;2023-02-01T20:33:35;9.30;69.90
43320;DHT22;28914;48.722;9.332;2023-02-01T20:38:55;9.30;69.90
43320;DHT22;28914;48.722;9.332;2023-02-01T20:44:15;9.40;69.90
43320;DHT22;28914;48.722;9.332;2023-02-01T20:49:34;9.40;69.80
43320;DHT22;28914;48.722;9.332;2023-02-01T20:54:53;9.40;69.90
43320;DHT22;28914;48.722;9.332;2023-02-01T21:00:12;9.50;70.00
43320;DHT22;28914;48.722;9.332;2023-02-01T21:05:33;9.50;70.00
43320;DHT22;28914;48.722;9.332;2023-02-01T21:11:10;9.60;70.00
43320;DHT22;28914;48.722;9.332;2023-02-01T21:16:30;9.60;70.10
43320;DHT22;28914;48.722;9.332;2023-02-01T21:21:50;9.60;70.10
43320;DHT22;28914;48.722;9.332;2023-02-01T21:27:09;9.50;70.10
43320;DHT22;28914;48.722;9.332;2023-02-01T21:32:29;9.60;70.10
43320;DHT22;28914;48.722;9.332;2023-02-01T21:37:48;9.50;70.20
43320;DHT22;28914;48.722;9.332;2023-02-01T21:43:07;9.50;70.30
43320;DHT22;28914;48.722;9.332;2023-02-01T21:48:26;9.40;71.30
43320;DHT22;28914;48.722;9.332;2023-02-01T21:53:46;9.50;70.60
43320;DHT22;28914;48.722;9.332;2023-02-01T21:59:05;9.50;70.60
43320;DHT22;28914;48.722;9.332;2023-02-01T22:04:25;9.50;70.80
43320;DHT22;28914;48.722;9.332;2023-02-01T22:09:44;9.50;70.80
43320;DHT22;28914;48.722;9.332;2023-02-01T22:15:03;9.50;70.90
43320;DHT22;28914;48.722;9.332;2023-02-01T22:20:22;9.50;70.90
43320;DHT22;28914;48.722;9.332;2023-02-01T22:25:41;9.50;70.90
43320;DHT22;28914;48.722;9.332;2023-02-01T22:31:02;9.50;71.00
43320;DHT22;28914;48.722;9.332;2023-02-01T22:36:22;9.50;71.00
43320;DHT22;28914;48.722;9.332;2023-02-01T22:41:43;9.50;71.10
43320;DHT22;28914;48.722;9.332;2023-02-01T22:47:02;9.50;71.30
43320;DHT22;28914;48.722;9.332;2023-02-01T22:52:21;9.40;71.30
43320;DHT22;28914;48.722;9.332;2023-02-01T22:57:40;9.40;71.50
43320;DHT22;28914;48.722;9.332;2023-02-01T23:02:59;9.40;71.80
43320;DHT22;28914;48.722;9.332;2023-02-01T23:08:18;9.30;72.80
43320;DHT22;28914;48.722;9.332;2023-02-01T23:13:38;9.20;72.10
43320;DHT22;28914;48.722;9.332;2023-02-01T23:18:58;9.30;72.20
43320;DHT22;28914;48.722;9.332;2023-02-01T23:24:18;9.20;72.30
43320;DHT22;28914;48.722;9.332;2023-02-01T23:29:37;9.30;72.30
43320;DHT22;28914;48.722;9.332;2023-02-01T23:34:56;9.30;72.30
43320;DHT22;28914;48.722;9.332;2023-02-01T23:40:15;9.30;72.30
43320;DHT22;28914;48.722;9.332;2023-02-01T23:45:35;9.30;72.20
43320;DHT22;28914;48.722;9.332;2023-02-01T23:50:54;9.30;72.30
43320;DHT22;28914;48.722;9.332;2023-02-01T23:56:24;9.30;72.30
